createdAt,value
2019-04-29T00:00:58.260Z,2.30
2019-04-29T00:03:27.668Z,2.23
2019-04-29T00:05:56.870Z,2.23
2019-04-29T00:08:26.086Z,2.37
2019-04-29T00:10:55.392Z,2.40
2019-04-29T00:13:25.669Z,2.30
2019-04-29T00:19:13.952Z,2.60
2019-04-29T00:21:43.361Z,2.37
2019-04-29T00:24:12.481Z,2.30
2019-04-29T00:26:41.946Z,2.33
2019-04-29T00:29:11.368Z,2.33
2019-04-29T00:31:41.353Z,2.30
2019-04-29T00:34:14.748Z,2.60
2019-04-29T00:36:53.916Z,2.40
2019-04-29T00:39:42.092Z,2.40
2019-04-29T00:42:25.199Z,2.20
2019-04-29T00:44:54.665Z,2.60
2019-04-29T00:47:24.242Z,2.40
2019-04-29T00:49:54.968Z,2.53
2019-04-29T00:52:24.540Z,2.53
2019-04-29T00:55:00.161Z,2.37
2019-04-29T00:57:29.324Z,2.50
2019-04-29T00:59:58.452Z,2.30
2019-04-29T01:02:27.604Z,2.47
2019-04-29T01:04:57.280Z,2.30
2019-04-29T01:07:26.745Z,2.63
2019-04-29T01:09:56.264Z,2.57
2019-04-29T01:12:25.464Z,2.50
2019-04-29T01:14:54.638Z,2.55
2019-04-29T01:17:24.844Z,2.58
2019-04-29T01:19:54.764Z,2.67
2019-04-29T01:22:24.711Z,2.40
2019-04-29T01:24:53.806Z,3.00
2019-04-29T01:27:31.164Z,2.70
2019-04-29T01:30:00.248Z,2.70
2019-04-29T01:32:29.716Z,2.47
2019-04-29T01:35:00.085Z,2.80
2019-04-29T01:37:54.600Z,2.30
2019-04-29T01:40:45.076Z,2.70
2019-04-29T01:43:15.478Z,2.97
2019-04-29T01:45:44.425Z,2.70
2019-04-29T01:48:13.882Z,2.63
2019-04-29T01:50:43.575Z,2.77
2019-04-29T01:53:13.014Z,2.70
2019-04-29T01:55:42.177Z,3.13
2019-04-29T01:58:11.280Z,3.23
2019-04-29T02:00:40.772Z,2.77
2019-04-29T02:03:09.849Z,2.60
2019-04-29T02:05:39.040Z,2.90
2019-04-29T02:08:08.328Z,3.03
2019-04-29T02:10:37.543Z,3.35
2019-04-29T02:13:06.852Z,2.90
2019-04-29T02:15:37.430Z,2.70
2019-04-29T02:18:06.613Z,2.77
2019-04-29T02:20:36.019Z,2.83
2019-04-29T02:23:24.676Z,3.10
2019-04-29T02:25:54.157Z,2.70
2019-04-29T02:28:23.339Z,2.62
2019-04-29T02:30:52.871Z,3.27
2019-04-29T02:33:22.182Z,3.33
2019-04-29T02:35:51.772Z,3.43
2019-04-29T02:38:37.324Z,3.33
2019-04-29T02:41:16.617Z,3.50
2019-04-29T02:43:47.826Z,3.47
2019-04-29T02:46:17.237Z,3.20
2019-04-29T02:48:47.118Z,2.90
2019-04-29T02:51:35.284Z,3.15
2019-04-29T02:54:06.218Z,3.35
2019-04-29T02:56:35.361Z,3.20
2019-04-29T02:59:05.887Z,3.52
2019-04-29T03:01:43.795Z,3.80
2019-04-29T03:04:38.284Z,3.50
2019-04-29T03:07:09.265Z,3.27
2019-04-29T03:09:46.510Z,3.08
2019-04-29T03:12:16.018Z,3.80
2019-04-29T03:14:45.491Z,3.57
2019-04-29T03:17:18.626Z,3.65
2019-04-29T03:20:05.164Z,3.60
2019-04-29T03:22:34.749Z,3.33
2019-04-29T03:25:04.193Z,3.40
2019-04-29T03:30:07.977Z,3.90
2019-04-29T03:32:37.374Z,3.77
2019-04-29T03:35:07.084Z,3.80
2019-04-29T03:37:36.256Z,3.30
2019-04-29T03:40:05.768Z,3.63
2019-04-29T03:42:35.222Z,3.80
2019-04-29T03:45:04.920Z,4.05
2019-04-29T03:47:34.371Z,3.53
2019-04-29T03:50:03.623Z,4.30
2019-04-29T03:52:33.064Z,3.97
2019-04-29T03:55:02.465Z,4.20
2019-04-29T03:57:35.820Z,3.90
2019-04-29T04:00:06.043Z,4.27
2019-04-29T04:02:42.264Z,3.77
2019-04-29T04:05:27.913Z,3.70
2019-04-29T04:08:02.364Z,3.83
2019-04-29T04:10:31.476Z,4.10
2019-04-29T04:13:01.345Z,3.83
2019-04-29T04:15:30.464Z,3.97
2019-04-29T04:18:05.292Z,4.13
2019-04-29T04:20:34.992Z,3.97
2019-04-29T04:23:04.140Z,4.03
2019-04-29T04:25:36.534Z,3.60
2019-04-29T04:28:05.944Z,4.00
2019-04-29T04:30:35.296Z,3.80
2019-04-29T04:33:05.449Z,4.20
2019-04-29T04:35:35.456Z,4.07
2019-04-29T04:38:04.679Z,4.53
2019-04-29T04:40:38.349Z,4.08
2019-04-29T04:43:07.509Z,4.00
2019-04-29T04:45:38.445Z,4.10
2019-04-29T04:48:07.651Z,4.30
2019-04-29T04:50:37.205Z,4.17
2019-04-29T04:53:06.560Z,4.13
2019-04-29T04:55:38.383Z,4.85
2019-04-29T04:58:07.490Z,3.90
2019-04-29T05:00:37.661Z,4.17
2019-04-29T05:03:07.221Z,4.40
2019-04-29T05:08:12.009Z,3.93
2019-04-29T05:10:41.956Z,4.10
2019-04-29T05:13:11.052Z,4.67
2019-04-29T05:15:40.184Z,3.90
2019-04-29T05:18:09.288Z,4.73
2019-04-29T05:20:38.410Z,4.20
2019-04-29T05:23:07.740Z,4.70
2019-04-29T05:25:36.949Z,6.23
2019-04-29T05:28:06.545Z,5.17
2019-04-29T05:30:37.572Z,6.80
2019-04-29T05:33:06.778Z,5.90
2019-04-29T05:36:01.854Z,6.60
2019-04-29T05:38:48.215Z,7.07
2019-04-29T05:41:18.178Z,7.20
2019-04-29T05:43:57.237Z,7.23
2019-04-29T05:46:37.408Z,7.43
2019-04-29T05:49:09.720Z,7.00
2019-04-29T05:52:01.971Z,6.97
2019-04-29T05:54:32.120Z,6.50
2019-04-29T05:57:03.260Z,6.50
2019-04-29T05:59:32.632Z,6.13
2019-04-29T06:02:02.150Z,6.00
2019-04-29T06:04:31.849Z,5.87
2019-04-29T06:07:00.929Z,5.80
2019-04-29T06:09:30.342Z,5.57
2019-04-29T06:12:00.674Z,6.30
2019-04-29T06:14:31.094Z,6.13
2019-04-29T06:17:02.928Z,6.00
2019-04-29T06:19:35.218Z,6.30
2019-04-29T06:22:03.985Z,6.15
2019-04-29T06:24:36.884Z,6.40
2019-04-29T06:27:05.781Z,6.37
2019-04-29T06:29:36.041Z,5.97
2019-04-29T06:32:07.798Z,6.10
2019-04-29T06:34:40.014Z,6.53
2019-04-29T06:37:08.673Z,6.67
2019-04-29T06:42:15.454Z,6.47
2019-04-29T06:44:49.127Z,7.00
2019-04-29T06:47:17.309Z,6.67
2019-04-29T06:49:46.804Z,6.30
2019-04-29T06:52:16.462Z,6.65
2019-04-29T06:54:46.044Z,7.30
2019-04-29T06:57:15.236Z,6.70
2019-04-29T06:59:47.488Z,6.87
2019-04-29T07:02:16.093Z,7.20
2019-04-29T07:04:45.403Z,8.23
2019-04-29T07:07:15.045Z,7.30
2019-04-29T07:09:44.056Z,7.30
2019-04-29T07:12:13.987Z,7.77
2019-04-29T07:14:43.613Z,7.78
2019-04-29T07:17:13.431Z,8.07
2019-04-29T07:19:42.551Z,8.33
2019-04-29T07:22:11.688Z,8.75
2019-04-29T07:24:40.878Z,8.80
2019-04-29T07:27:10.103Z,8.80
2019-04-29T07:29:40.676Z,10.33
2019-04-29T07:32:10.732Z,12.23
2019-04-29T07:34:40.094Z,12.00
2019-04-29T07:37:09.378Z,12.97
2019-04-29T07:39:39.013Z,13.10
2019-04-29T07:42:08.567Z,12.80
2019-04-29T07:44:48.969Z,12.43
2019-04-29T07:47:18.042Z,12.78
2019-04-29T07:49:51.508Z,13.53
2019-04-29T07:52:20.439Z,12.30
2019-04-29T07:55:09.478Z,12.50
2019-04-29T07:57:53.913Z,12.93
2019-04-29T08:00:33.303Z,15.23
2019-04-29T08:03:04.270Z,15.17
2019-04-29T08:05:35.192Z,15.18
2019-04-29T08:08:04.540Z,14.07
2019-04-29T08:10:34.696Z,16.02
2019-04-29T08:13:04.820Z,15.87
2019-04-29T08:15:36.733Z,16.23
2019-04-29T08:18:06.831Z,15.60
2019-04-29T08:20:39.742Z,15.80
2019-04-29T08:23:07.213Z,15.37
2019-04-29T08:25:36.473Z,14.87
2019-04-29T08:28:05.945Z,15.13
2019-04-29T08:30:35.145Z,14.17
2019-04-29T08:33:07.512Z,13.87
2019-04-29T08:35:36.831Z,13.28
2019-04-29T08:38:07.860Z,13.88
2019-04-29T08:40:37.080Z,13.03
2019-04-29T08:43:25.696Z,12.63
2019-04-29T08:46:05.950Z,15.23
2019-04-29T08:48:35.281Z,13.93
2019-04-29T08:51:04.981Z,14.23
2019-04-29T08:53:34.982Z,13.37
2019-04-29T08:56:05.548Z,12.33
2019-04-29T08:58:39.034Z,13.20
2019-04-29T09:01:07.303Z,13.10
2019-04-29T09:03:40.563Z,12.30
2019-04-29T09:06:07.755Z,11.83
2019-04-29T09:08:36.913Z,11.87
2019-04-29T09:11:08.170Z,14.37
2019-04-29T09:13:37.392Z,11.13
2019-04-29T09:16:07.669Z,10.60
2019-04-29T09:18:37.117Z,11.73
2019-04-29T09:21:06.350Z,11.90
2019-04-29T09:23:37.072Z,8.10
2019-04-29T09:26:28.029Z,7.67
2019-04-29T09:28:59.788Z,8.63
2019-04-29T09:31:29.960Z,8.67
2019-04-29T09:34:06.309Z,9.00
2019-04-29T09:36:30.401Z,9.83
2019-04-29T09:38:59.659Z,9.90
2019-04-29T09:41:49.293Z,9.13
2019-04-29T09:44:44.537Z,10.67
2019-04-29T09:47:11.343Z,10.47
2019-04-29T09:49:40.825Z,10.80
2019-04-29T09:52:11.496Z,10.70
2019-04-29T09:54:40.723Z,10.83
2019-04-29T09:57:10.942Z,11.63
2019-04-29T09:59:45.003Z,13.90
2019-04-29T10:02:21.864Z,14.27
2019-04-29T10:05:00.570Z,14.67
2019-04-29T10:07:29.797Z,16.37
2019-04-29T10:10:02.378Z,17.73
2019-04-29T10:12:31.670Z,16.60
2019-04-29T10:15:00.889Z,15.93
2019-04-29T10:18:01.385Z,15.00
2019-04-29T10:20:38.608Z,14.37
2019-04-29T10:23:08.108Z,15.00
2019-04-29T10:25:37.727Z,12.87
2019-04-29T10:28:07.513Z,12.40
2019-04-29T10:30:36.744Z,11.13
2019-04-29T10:33:05.903Z,11.30
2019-04-29T10:35:36.444Z,11.70
2019-04-29T10:38:06.391Z,10.90
2019-04-29T10:40:56.478Z,11.10
2019-04-29T10:43:55.566Z,10.60
2019-04-29T10:46:42.649Z,9.75
2019-04-29T10:49:23.784Z,10.00
2019-04-29T10:51:57.964Z,8.83
2019-04-29T10:54:26.298Z,9.57
2019-04-29T10:56:57.420Z,9.70
2019-04-29T10:59:35.642Z,10.90
2019-04-29T11:02:37.789Z,10.27
2019-04-29T11:05:30.088Z,10.43
2019-04-29T11:08:19.480Z,9.57
2019-04-29T11:10:49.597Z,8.95
2019-04-29T11:13:18.764Z,10.17
2019-04-29T11:15:49.373Z,10.87
2019-04-29T11:18:23.291Z,10.97
2019-04-29T11:20:53.790Z,11.23
2019-04-29T11:23:42.576Z,11.67
2019-04-29T11:26:22.485Z,11.40
2019-04-29T11:28:52.370Z,11.27
2019-04-29T11:31:22.100Z,12.30
2019-04-29T11:34:01.746Z,10.70
2019-04-29T11:36:34.929Z,12.23
2019-04-29T11:39:03.206Z,11.30
2019-04-29T11:41:33.413Z,10.20
2019-04-29T11:44:02.923Z,9.57
2019-04-29T11:46:32.211Z,9.30
2019-04-29T11:49:03.053Z,10.47
2019-04-29T11:51:47.331Z,11.43
2019-04-29T11:54:12.323Z,11.90
2019-04-29T11:56:42.853Z,10.90
2019-04-29T11:59:29.983Z,10.97
2019-04-29T12:02:17.419Z,12.60
2019-04-29T12:04:53.620Z,13.88
2019-04-29T12:07:31.690Z,12.73
2019-04-29T12:12:29.868Z,13.33
2019-04-29T12:15:27.322Z,12.57
2019-04-29T12:18:13.906Z,11.80
2019-04-29T12:21:02.043Z,12.77
2019-04-29T12:23:33.225Z,12.78
2019-04-29T12:26:04.724Z,13.37
2019-04-29T12:28:37.972Z,12.63
2019-04-29T12:31:12.900Z,12.47
2019-04-29T12:33:48.471Z,11.30
2019-04-29T12:36:17.775Z,10.75
2019-04-29T12:39:21.569Z,9.38
2019-04-29T12:42:05.758Z,10.67
2019-04-29T12:44:50.795Z,10.47
2019-04-29T12:47:26.682Z,10.28
2019-04-29T12:49:55.332Z,12.80
2019-04-29T12:52:26.456Z,11.10
2019-04-29T12:54:55.977Z,8.93
2019-04-29T12:57:25.356Z,8.10
2019-04-29T12:59:55.239Z,8.93
2019-04-29T13:02:43.601Z,10.40
2019-04-29T13:05:31.946Z,10.93
2019-04-29T13:08:07.714Z,11.47
2019-04-29T13:10:44.220Z,7.43
2019-04-29T13:13:15.770Z,7.37
2019-04-29T13:18:55.647Z,10.05
2019-04-29T13:21:25.203Z,11.97
2019-04-29T13:24:05.306Z,12.70
2019-04-29T13:26:28.399Z,12.47
2019-04-29T13:29:00.797Z,12.13
2019-04-29T13:31:38.212Z,11.87
2019-04-29T13:34:14.721Z,11.23
2019-04-29T13:36:34.631Z,10.27
2019-04-29T13:39:05.320Z,9.37
2019-04-29T13:41:34.913Z,8.33
2019-04-29T13:44:07.088Z,9.60
2019-04-29T13:46:53.935Z,10.10
2019-04-29T13:49:33.093Z,10.97
2019-04-29T13:52:02.717Z,12.17
2019-04-29T13:54:37.214Z,10.67
2019-04-29T13:57:11.376Z,9.57
2019-04-29T14:00:06.693Z,8.97
2019-04-29T14:02:40.396Z,9.17
2019-04-29T14:05:10.457Z,8.23
2019-04-29T14:07:42.162Z,8.43
2019-04-29T14:10:14.820Z,7.80
2019-04-29T14:12:49.022Z,8.20
2019-04-29T14:15:15.201Z,8.30
2019-04-29T14:17:44.725Z,8.13
2019-04-29T14:23:08.521Z,8.93
2019-04-29T14:25:39.935Z,9.83
2019-04-29T14:28:09.147Z,8.93
2019-04-29T14:30:39.356Z,8.40
2019-04-29T14:33:09.340Z,8.60
2019-04-29T14:35:59.781Z,10.27
2019-04-29T14:38:29.040Z,10.93
2019-04-29T14:40:58.220Z,10.43
2019-04-29T14:43:45.553Z,10.47
2019-04-29T14:46:40.170Z,9.70
2019-04-29T14:49:20.853Z,9.27
2019-04-29T14:51:50.335Z,9.20
2019-04-29T14:54:20.717Z,9.20
2019-04-29T14:56:49.833Z,8.73
2019-04-29T14:59:19.937Z,8.00
2019-04-29T15:01:57.800Z,8.10
2019-04-29T15:04:30.828Z,7.43
2019-04-29T15:07:00.210Z,6.93
2019-04-29T15:09:29.992Z,5.93
2019-04-29T15:12:05.700Z,6.33
2019-04-29T15:14:43.221Z,6.37
2019-04-29T15:17:22.012Z,6.10
2019-04-29T15:19:58.375Z,5.90
2019-04-29T15:22:31.288Z,5.93
2019-04-29T15:25:02.045Z,5.87
2019-04-29T15:27:31.584Z,6.23
2019-04-29T15:30:01.369Z,5.70
2019-04-29T15:32:31.284Z,6.13
2019-04-29T15:35:03.985Z,7.20
2019-04-29T15:37:33.478Z,6.17
2019-04-29T15:40:03.056Z,5.42
2019-04-29T15:42:32.260Z,5.40
2019-04-29T15:45:01.698Z,4.97
2019-04-29T15:47:31.800Z,5.03
2019-04-29T15:50:11.220Z,5.57
2019-04-29T15:52:32.009Z,5.40
2019-04-29T15:55:01.554Z,6.00
2019-04-29T15:57:31.160Z,5.30
2019-04-29T16:00:03.716Z,5.20
2019-04-29T16:02:31.305Z,5.20
2019-04-29T16:05:09.129Z,5.30
2019-04-29T16:07:55.837Z,5.27
2019-04-29T16:10:45.104Z,6.03
2019-04-29T16:13:16.378Z,5.57
2019-04-29T16:15:45.528Z,4.70
2019-04-29T16:18:15.443Z,3.97
2019-04-29T16:20:44.768Z,3.77
2019-04-29T16:23:15.173Z,4.10
2019-04-29T16:25:46.178Z,3.90
2019-04-29T16:28:31.564Z,3.43
2019-04-29T16:31:09.417Z,3.40
2019-04-29T16:33:34.740Z,4.00
2019-04-29T16:36:05.294Z,4.07
2019-04-29T16:38:35.539Z,3.60
2019-04-29T16:41:19.510Z,3.67
2019-04-29T16:43:47.966Z,4.17
2019-04-29T16:46:23.464Z,3.60
2019-04-29T16:48:51.268Z,4.00
2019-04-29T16:51:20.766Z,4.17
2019-04-29T16:53:50.228Z,4.07
2019-04-29T16:56:19.796Z,3.92
2019-04-29T16:59:09.148Z,4.60
2019-04-29T17:01:37.457Z,3.90
2019-04-29T17:04:07.378Z,3.55
2019-04-29T17:06:41.663Z,3.30
2019-04-29T17:09:26.059Z,4.00
2019-04-29T17:11:58.429Z,3.55
2019-04-29T17:14:27.987Z,3.47
2019-04-29T17:16:57.293Z,3.70
2019-04-29T17:19:26.513Z,4.00
2019-04-29T17:24:27.513Z,3.80
2019-04-29T17:27:17.266Z,4.03
2019-04-29T17:30:11.685Z,3.93
2019-04-29T17:33:12.314Z,3.93
2019-04-29T17:35:17.705Z,3.93
2019-04-29T17:35:47.098Z,3.57
2019-04-29T17:38:13.191Z,3.85
2019-04-29T17:40:50.935Z,4.07
2019-04-29T17:43:24.010Z,4.13
2019-04-29T17:46:12.708Z,3.85
2019-04-29T17:48:54.103Z,4.10
2019-04-29T17:51:24.803Z,3.75
2019-04-29T17:54:01.272Z,4.20
2019-04-29T17:56:45.120Z,3.87
2019-04-29T17:59:30.830Z,3.70
2019-04-29T18:02:22.145Z,5.33
2019-04-29T18:05:03.247Z,3.87
2019-04-29T18:07:35.771Z,4.07
2019-04-29T18:10:24.327Z,3.93
2019-04-29T18:12:52.812Z,4.40
2019-04-29T18:15:25.660Z,4.53
2019-04-29T18:17:55.955Z,4.30
2019-04-29T18:20:35.760Z,4.23
2019-04-29T18:23:32.849Z,4.07
2019-04-29T18:26:14.841Z,4.62
2019-04-29T18:28:45.783Z,4.37
2019-04-29T18:31:14.821Z,4.37
2019-04-29T18:33:45.091Z,5.10
2019-04-29T18:36:23.510Z,4.87
2019-04-29T18:38:47.523Z,5.13
2019-04-29T18:41:25.423Z,5.70
2019-04-29T18:43:48.969Z,5.63
2019-04-29T18:46:18.087Z,6.00
2019-04-29T18:48:47.196Z,5.40
2019-04-29T18:51:20.726Z,5.93
2019-04-29T18:53:47.684Z,5.50
2019-04-29T18:56:17.097Z,6.50
2019-04-29T18:58:50.110Z,6.43
2019-04-29T19:01:19.652Z,5.87
2019-04-29T19:04:19.259Z,5.73
2019-04-29T19:06:51.244Z,6.40
2019-04-29T19:09:20.806Z,6.90
2019-04-29T19:11:53.023Z,7.20
2019-04-29T19:14:26.282Z,7.00
2019-04-29T19:16:56.786Z,8.93
2019-04-29T19:19:25.316Z,7.73
2019-04-29T19:21:55.865Z,7.97
2019-04-29T19:24:27.516Z,8.37
2019-04-29T19:27:00.516Z,9.20
2019-04-29T19:29:28.668Z,9.80
2019-04-29T19:31:58.244Z,9.60
2019-04-29T19:34:39.420Z,9.43
2019-04-29T19:36:59.511Z,9.43
2019-04-29T19:39:28.692Z,10.37
2019-04-29T19:41:57.835Z,10.90
2019-04-29T19:44:33.338Z,10.80
2019-04-29T19:46:59.153Z,10.77
2019-04-29T19:49:28.684Z,11.73
2019-04-29T19:51:58.092Z,11.00
2019-04-29T19:54:28.555Z,11.50
2019-04-29T19:57:03.575Z,11.00
2019-04-29T19:59:30.068Z,10.80
2019-04-29T20:02:05.520Z,11.93
2019-04-29T20:04:42.450Z,12.33
2019-04-29T20:07:12.270Z,13.53
2019-04-29T20:09:43.005Z,15.47
2019-04-29T20:12:17.133Z,14.73
2019-04-29T20:14:45.911Z,15.33
2019-04-29T20:17:49.095Z,14.93
2019-04-29T20:20:35.021Z,15.70
2019-04-29T20:23:03.166Z,15.77
2019-04-29T20:25:37.935Z,15.40
2019-04-29T20:28:06.724Z,15.80
2019-04-29T20:30:34.948Z,15.72
2019-04-29T20:33:11.052Z,16.23
2019-04-29T20:35:40.554Z,16.15
2019-04-29T20:38:09.294Z,16.13
2019-04-29T20:40:42.988Z,15.33
2019-04-29T20:43:09.928Z,17.40
2019-04-29T20:45:39.771Z,16.13
2019-04-29T20:48:11.121Z,16.60
2019-04-29T20:50:41.114Z,16.90
2019-04-29T20:53:25.642Z,16.37
2019-04-29T20:55:55.480Z,15.78
2019-04-29T20:58:31.511Z,15.73
2019-04-29T21:01:02.600Z,16.00
2019-04-29T21:03:29.810Z,15.63
2019-04-29T21:06:02.748Z,16.33
2019-04-29T21:08:28.506Z,17.67
2019-04-29T21:10:59.684Z,16.47
2019-04-29T21:13:48.889Z,17.13
2019-04-29T21:19:17.276Z,16.93
2019-04-29T21:21:47.540Z,16.37
2019-04-29T21:24:18.570Z,18.33
2019-04-29T21:26:48.976Z,17.15
2019-04-29T21:29:19.364Z,16.73
2019-04-29T21:31:50.601Z,17.33
2019-04-29T21:34:21.836Z,15.43
2019-04-29T21:37:15.804Z,14.90
2019-04-29T21:39:55.084Z,15.57
2019-04-29T21:42:47.298Z,16.07
2019-04-29T21:45:18.144Z,16.60
2019-04-29T21:47:52.973Z,16.47
2019-04-29T21:50:18.831Z,16.87
2019-04-29T21:52:48.865Z,16.75
2019-04-29T21:55:20.528Z,19.55
2019-04-29T21:57:49.044Z,19.30
2019-04-29T22:00:24.078Z,19.13
2019-04-29T22:02:49.668Z,21.33
2019-04-29T22:05:18.803Z,21.37
2019-04-29T22:07:47.932Z,20.07
2019-04-29T22:10:19.810Z,20.27
2019-04-29T22:12:50.951Z,20.43
2019-04-29T22:15:32.035Z,20.80
2019-04-29T22:17:56.357Z,18.70
2019-04-29T22:20:23.147Z,19.30
2019-04-29T22:22:53.237Z,19.25
2019-04-29T22:25:22.308Z,18.13
2019-04-29T22:27:51.405Z,18.80
2019-04-29T22:30:21.122Z,19.27
2019-04-29T22:32:51.850Z,19.17
2019-04-29T22:35:21.737Z,19.17
2019-04-29T22:37:50.846Z,18.77
2019-04-29T22:40:20.800Z,19.17
2019-04-29T22:43:08.421Z,19.40
2019-04-29T22:45:33.993Z,19.23
2019-04-29T22:48:14.688Z,19.32
2019-04-29T22:50:38.306Z,18.97
2019-04-29T22:53:08.753Z,19.43
2019-04-29T22:55:38.800Z,18.30
2019-04-29T22:58:10.115Z,18.97
2019-04-29T23:00:41.124Z,19.27
2019-04-29T23:03:10.981Z,19.53
2019-04-29T23:05:41.653Z,20.55
2019-04-29T23:08:11.088Z,20.43
2019-04-29T23:10:40.344Z,20.10
2019-04-29T23:13:09.814Z,20.52
2019-04-29T23:15:39.326Z,19.02
2019-04-29T23:18:09.420Z,19.20
2019-04-29T23:21:09.851Z,18.53
2019-04-29T23:23:45.401Z,18.73
2019-04-29T23:26:14.836Z,18.77
2019-04-29T23:28:46.133Z,18.27
2019-04-29T23:31:15.255Z,18.10
2019-04-29T23:33:46.247Z,20.43
2019-04-29T23:36:15.986Z,19.43
2019-04-29T23:38:47.182Z,20.63
2019-04-29T23:41:16.312Z,18.00
2019-04-29T23:43:46.183Z,19.70
2019-04-29T23:46:16.137Z,19.60
2019-04-29T23:48:46.806Z,20.80
2019-04-29T23:51:17.110Z,20.40
2019-04-29T23:53:46.318Z,20.20
2019-04-29T23:56:15.816Z,20.27
2019-04-29T23:58:55.403Z,21.33
